Time;durP1;ratioP1;P1;durP2;ratioP2;P2;SDS_P1;SDS_P2;PMS_P1;PMS_P2;Temp;Humidity;BMP_temperature;BMP_pressure;BME280_temperature;BME280_humidity;BME280_pressure;Samples;Min_cycle;Max_cycle;Signal;HPM_P1;HPM_P2
2022/08/14 00:00:26;;;;;;;2.00;1.75;;;;;;;;;;5090969;28;20127;-80
2022/08/14 00:02:52;;;;;;;2.95;2.00;;;;;;;;;;5085474;28;20024;-80
2022/08/14 00:05:20;;;;;;;2.10;1.90;;;;;;;;;;5069605;28;20467;-81
2022/08/14 00:07:47;;;;;;;2.15;2.03;;;;;;;;;;5069361;28;20041;-81
2022/08/14 00:10:14;;;;;;;2.00;1.83;;;;;;;;;;5074309;28;20021;-80
2022/08/14 00:12:44;;;;;;;2.75;1.90;;;;;;;;;;5073314;28;20285;-80
2022/08/14 00:15:10;;;;;;;2.72;1.92;;;;;;;;;;5074206;28;20142;-81
2022/08/14 00:17:36;;;;;;;2.83;1.85;;;;;;;;;;5078737;28;20058;-81
2022/08/14 00:20:02;;;;;;;3.35;2.40;;;;;;;;;;5095932;28;20412;-81
2022/08/14 00:22:28;;;;;;;3.63;2.00;;;;;;;;;;5092269;28;20416;-80
2022/08/14 00:24:54;;;;;;;2.75;1.90;;;;;;;;;;5093495;28;20099;-80
2022/08/14 00:27:20;;;;;;;2.95;2.00;;;;;;;;;;5095346;28;20118;-81
2022/08/14 00:29:46;;;;;;;2.35;2.00;;;;;;;;;;5090434;28;20027;-80
2022/08/14 00:32:12;;;;;;;2.10;1.90;;;;;;;;;;5094320;28;20028;-80
2022/08/14 00:34:38;;;;;;;2.00;1.90;;;;;;;;;;5094228;28;20034;-80
2022/08/14 00:37:04;;;;;;;2.75;2.40;;;;;;;;;;5094344;28;20066;-80
2022/08/14 00:39:30;;;;;;;2.60;2.40;;;;;;;;;;5095290;28;20053;-81
2022/08/14 00:41:56;;;;;;;2.40;2.20;;;;;;;;;;5091030;28;20017;-80
2022/08/14 00:44:22;;;;;;;2.63;2.13;;;;;;;;;;5076271;28;20531;-81
2022/08/14 00:46:48;;;;;;;1.98;1.88;;;;;;;;;;5093793;28;20050;-80
2022/08/14 00:49:14;;;;;;;2.22;2.03;;;;;;;;;;5093973;28;20024;-80
2022/08/14 00:51:42;;;;;;;2.35;2.15;;;;;;;;;;5094997;28;20035;-81
2022/08/14 00:54:09;;;;;;;4.22;2.30;;;;;;;;;;5095011;28;20016;-81
2022/08/14 00:56:35;;;;;;;4.05;1.95;;;;;;;;;;5093549;28;20020;-80
2022/08/14 00:59:01;;;;;;;3.25;1.83;;;;;;;;;;5093403;28;20024;-79
2022/08/14 01:01:28;;;;;;;2.45;1.95;;;;;;;;;;5092581;28;20494;-80
2022/08/14 01:03:54;;;;;;;1.92;1.83;;;;;;;;;;5091400;28;20474;-82
2022/08/14 01:06:20;;;;;;;1.90;1.80;;;;;;;;;;5092049;28;20074;-83
2022/08/14 01:08:48;;;;;;;2.17;1.70;;;;;;;;;;5093083;28;20020;-82
2022/08/14 01:11:14;;;;;;;;;;;;;;;;;;5093081;28;20020;-80
2022/08/14 01:13:41;;;;;;;2.08;1.92;;;;;;;;;;5093472;28;19910;-83
2022/08/14 01:16:08;;;;;;;2.20;1.80;;;;;;;;;;5093435;28;20465;-82
2022/08/14 01:21:32;;;;;;;2.30;2.10;;;;;;;;;;5094565;28;20112;-83
2022/08/14 01:23:59;;;;;;;2.10;1.90;;;;;;;;;;5088116;28;20135;-83
2022/08/14 01:26:25;;;;;;;2.00;1.80;;;;;;;;;;5086632;28;20161;-83
2022/08/14 01:28:56;;;;;;;1.83;1.73;;;;;;;;;;5093093;28;20078;-83
2022/08/14 01:31:24;;;;;;;1.75;1.65;;;;;;;;;;5091923;28;20027;-84
2022/08/14 01:33:51;;;;;;;2.00;1.80;;;;;;;;;;5093573;28;20478;-82
2022/08/14 01:36:19;;;;;;;2.08;1.90;;;;;;;;;;5093175;28;20128;-83
2022/08/14 01:38:47;;;;;;;2.25;2.00;;;;;;;;;;5092574;28;20034;-84
2022/08/14 01:41:14;;;;;;;3.33;2.20;;;;;;;;;;5094201;28;20016;-85
2022/08/14 01:43:51;;;;;;;4.05;2.05;;;;;;;;;;5090768;28;20024;-83
2022/08/14 01:46:18;;;;;;;3.17;1.92;;;;;;;;;;5092772;28;20083;-81
2022/08/14 01:48:44;;;;;;;2.10;1.90;;;;;;;;;;5091098;28;20027;-82
2022/08/14 01:51:11;;;;;;;2.13;1.90;;;;;;;;;;5090741;28;20050;-81
2022/08/14 01:53:39;;;;;;;2.25;2.05;;;;;;;;;;5093810;28;20039;-82
2022/08/14 01:56:05;;;;;;;2.80;2.13;;;;;;;;;;5090002;28;20028;-81
2022/08/14 01:58:31;;;;;;;2.20;2.00;;;;;;;;;;5082005;28;20059;-83
2022/08/14 02:00:58;;;;;;;2.38;2.17;;;;;;;;;;5092273;28;20028;-83
2022/08/14 02:03:25;;;;;;;2.72;1.80;;;;;;;;;;5093792;28;20099;-83
2022/08/14 02:05:53;;;;;;;1.80;1.70;;;;;;;;;;5078555;28;20032;-84
2022/08/14 02:08:19;;;;;;;2.20;2.00;;;;;;;;;;5092205;28;20024;-83
2022/08/14 02:11:15;;;;;;;2.10;1.80;;;;;;;;;;5077858;28;20023;-83
2022/08/14 02:13:32;;;;;;;2.05;1.85;;;;;;;;;;5093208;28;20039;-83
2022/08/14 02:15:59;;;;;;;2.15;1.52;;;;;;;;;;5092189;28;20412;-83
2022/08/14 02:18:26;;;;;;;1.83;1.73;;;;;;;;;;5092292;28;20024;-83
2022/08/14 02:20:53;;;;;;;2.10;2.00;;;;;;;;;;5087740;28;20013;-85
2022/08/14 02:23:19;;;;;;;2.20;2.00;;;;;;;;;;5074804;28;20024;-82
2022/08/14 02:25:45;;;;;;;2.28;2.10;;;;;;;;;;5090637;28;20055;-83
2022/08/14 02:28:11;;;;;;;2.50;2.28;;;;;;;;;;5090985;28;20122;-82
2022/08/14 02:30:38;;;;;;;2.28;2.00;;;;;;;;;;5092262;28;20024;-83
2022/08/14 02:33:06;;;;;;;2.40;1.90;;;;;;;;;;5091871;28;20035;-84
2022/08/14 02:35:32;;;;;;;3.20;2.10;;;;;;;;;;5091625;28;20034;-85
2022/08/14 02:37:58;;;;;;;2.08;1.70;;;;;;;;;;5091574;28;20024;-83
2022/08/14 02:40:25;;;;;;;2.90;2.15;;;;;;;;;;5091074;28;20024;-84
2022/08/14 02:42:51;;;;;;;3.63;2.10;;;;;;;;;;5090659;28;20396;-81
2022/08/14 02:45:17;;;;;;;2.67;2.10;;;;;;;;;;5088916;28;20036;-81
2022/08/14 02:47:43;;;;;;;3.25;2.13;;;;;;;;;;5092191;28;20065;-81
2022/08/14 02:50:10;;;;;;;2.92;2.00;;;;;;;;;;5090859;28;20028;-81
2022/08/14 02:52:36;;;;;;;2.83;2.08;;;;;;;;;;5091358;28;20027;-81
2022/08/14 02:55:04;;;;;;;2.15;1.92;;;;;;;;;;5091007;28;20531;-80
2022/08/14 02:57:30;;;;;;;2.10;1.92;;;;;;;;;;5092896;28;20530;-80
2022/08/14 02:59:57;;;;;;;2.30;2.10;;;;;;;;;;5089201;28;20107;-81
2022/08/14 03:02:23;;;;;;;2.38;2.17;;;;;;;;;;5089477;28;20024;-81
2022/08/14 03:04:49;;;;;;;2.25;2.00;;;;;;;;;;5091299;28;20016;-81
2022/08/14 03:07:15;;;;;;;2.10;2.00;;;;;;;;;;5091014;28;20074;-80
2022/08/14 03:09:41;;;;;;;1.67;1.58;;;;;;;;;;5090970;28;20020;-81
2022/08/14 03:12:08;;;;;;;2.85;1.90;;;;;;;;;;5091229;28;20500;-80
2022/08/14 03:14:36;;;;;;;2.72;2.10;;;;;;;;;;5091083;28;20023;-81
2022/08/14 03:17:02;;;;;;;2.10;1.90;;;;;;;;;;5078621;28;20022;-81
2022/08/14 03:19:28;;;;;;;1.92;1.83;;;;;;;;;;5090948;28;20024;-81
2022/08/14 03:21:54;;;;;;;2.20;2.00;;;;;;;;;;5091032;28;20028;-82
2022/08/14 03:24:21;;;;;;;2.00;1.77;;;;;;;;;;5092177;28;20089;-81
2022/08/14 03:26:48;;;;;;;2.30;2.10;;;;;;;;;;5092036;28;20397;-80
2022/08/14 03:29:19;;;;;;;2.33;1.98;;;;;;;;;;5091425;28;20020;-81
2022/08/14 03:31:48;;;;;;;2.63;1.88;;;;;;;;;;5083673;28;20025;-81
2022/08/14 03:34:14;;;;;;;2.10;1.90;;;;;;;;;;5070795;28;20024;-82
2022/08/14 03:36:42;;;;;;;1.75;1.65;;;;;;;;;;5070691;28;20382;-82
2022/08/14 03:39:08;;;;;;;2.00;1.90;;;;;;;;;;5070874;28;20048;-81
2022/08/14 03:41:35;;;;;;;1.90;1.80;;;;;;;;;;5072023;28;20025;-80
2022/08/14 03:44:02;;;;;;;2.08;1.90;;;;;;;;;;5080655;28;20027;-82
2022/08/14 03:46:29;;;;;;;2.20;1.98;;;;;;;;;;5095235;28;20390;-82
2022/08/14 03:48:56;;;;;;;2.10;2.00;;;;;;;;;;5093704;28;20392;-81
2022/08/14 03:51:26;;;;;;;2.20;2.05;;;;;;;;;;5096294;28;20066;-84
2022/08/14 03:53:53;;;;;;;1.85;1.75;;;;;;;;;;5094326;28;20024;-82
2022/08/14 03:56:19;;;;;;;2.03;1.83;;;;;;;;;;5094686;28;20378;-80
2022/08/14 03:58:47;;;;;;;2.17;2.05;;;;;;;;;;5094273;28;20057;-80
2022/08/14 04:01:14;;;;;;;3.17;2.08;;;;;;;;;;5095950;28;20069;-81
2022/08/14 04:03:40;;;;;;;1.88;1.77;;;;;;;;;;5093347;28;20021;-81
2022/08/14 04:06:10;;;;;;;2.03;1.90;;;;;;;;;;5073331;28;20390;-81
2022/08/14 04:08:37;;;;;;;2.00;1.90;;;;;;;;;;5073638;28;20078;-80
2022/08/14 04:11:04;;;;;;;2.10;1.92;;;;;;;;;;5075042;28;20491;-81
2022/08/14 04:13:31;;;;;;;2.17;1.83;;;;;;;;;;5075362;28;20031;-80
2022/08/14 04:15:57;;;;;;;3.00;2.05;;;;;;;;;;5075428;28;20028;-81
2022/08/14 04:18:22;;;;;;;2.20;2.00;;;;;;;;;;5074371;28;20027;-83
2022/08/14 04:20:49;;;;;;;2.65;2.20;;;;;;;;;;5094469;28;20075;-81
2022/08/14 04:23:16;;;;;;;2.25;1.83;;;;;;;;;;5093348;28;20514;-81
2022/08/14 04:25:42;;;;;;;2.00;1.90;;;;;;;;;;5092384;28;20056;-83
2022/08/14 04:28:10;;;;;;;2.80;2.20;;;;;;;;;;5092855;28;20040;-80
2022/08/14 04:30:38;;;;;;;1.90;1.80;;;;;;;;;;5094037;28;20023;-80
2022/08/14 04:33:04;;;;;;;2.47;2.28;;;;;;;;;;5094168;28;20036;-81
2022/08/14 04:35:30;;;;;;;2.25;2.05;;;;;;;;;;5094076;28;20024;-80
2022/08/14 04:43:35;;;;;;;2.55;2.03;;;;;;;;;;5081812;28;20027;-81
2022/08/14 04:46:01;;;;;;;2.25;2.08;;;;;;;;;;5093923;28;20093;-81
2022/08/14 04:48:27;;;;;;;2.72;1.90;;;;;;;;;;5094972;28;20470;-81
2022/08/14 04:50:55;;;;;;;2.53;2.20;;;;;;;;;;5093886;28;20106;-81
2022/08/14 04:53:22;;;;;;;2.53;2.33;;;;;;;;;;5092843;28;20578;-81
2022/08/14 04:55:49;;;;;;;2.50;2.30;;;;;;;;;;5091664;28;20040;-81
2022/08/14 04:58:23;;;;;;;2.75;2.45;;;;;;;;;;5093277;28;20090;-80
2022/08/14 05:00:49;;;;;;;2.30;2.10;;;;;;;;;;5092070;28;20020;-80
2022/08/14 05:03:19;;;;;;;3.47;1.98;;;;;;;;;;5093790;28;20386;-81
2022/08/14 05:05:46;;;;;;;2.53;2.33;;;;;;;;;;5093678;28;20073;-82
2022/08/14 05:08:12;;;;;;;2.47;2.28;;;;;;;;;;5092548;28;20028;-81
2022/08/14 05:10:42;;;;;;;3.25;2.10;;;;;;;;;;5094365;28;20021;-81
2022/08/14 05:13:09;;;;;;;3.10;2.33;;;;;;;;;;5093911;28;20035;-80
2022/08/14 05:15:35;;;;;;;2.88;2.60;;;;;;;;;;5093619;28;20055;-81
2022/08/14 05:18:03;;;;;;;3.60;2.20;;;;;;;;;;5093618;28;20115;-81
2022/08/14 05:20:29;;;;;;;2.50;2.30;;;;;;;;;;5092751;28;20441;-81
2022/08/14 05:22:56;;;;;;;2.58;2.28;;;;;;;;;;5092989;28;20016;-80
2022/08/14 05:25:22;;;;;;;3.20;2.45;;;;;;;;;;5093009;28;20040;-80
2022/08/14 05:27:48;;;;;;;2.97;2.50;;;;;;;;;;5094395;28;20070;-81
2022/08/14 05:30:15;;;;;;;2.30;2.15;;;;;;;;;;5092514;28;20478;-80
2022/08/14 05:32:42;;;;;;;2.50;2.30;;;;;;;;;;5093708;28;20087;-81
2022/08/14 05:35:10;;;;;;;3.15;2.20;;;;;;;;;;5093150;28;20047;-82
2022/08/14 05:37:38;;;;;;;4.15;2.40;;;;;;;;;;5092994;28;20042;-81
2022/08/14 05:40:04;;;;;;;2.50;2.30;;;;;;;;;;5090786;28;20024;-80
2022/08/14 05:42:30;;;;;;;2.50;2.30;;;;;;;;;;5092691;28;20508;-80
2022/08/14 05:44:59;;;;;;;3.20;2.45;;;;;;;;;;5090877;28;20020;-81
2022/08/14 05:47:25;;;;;;;2.90;2.70;;;;;;;;;;5092770;28;20339;-80
2022/08/14 05:49:51;;;;;;;2.97;2.40;;;;;;;;;;5092904;28;20020;-80
2022/08/14 05:52:17;;;;;;;2.60;2.40;;;;;;;;;;5090390;28;20127;-83
2022/08/14 05:54:43;;;;;;;2.40;2.30;;;;;;;;;;5085407;28;20482;-83
2022/08/14 05:57:09;;;;;;;2.88;2.67;;;;;;;;;;5092344;28;20048;-82
2022/08/14 05:59:35;;;;;;;4.10;2.80;;;;;;;;;;5093778;28;20096;-84
2022/08/14 06:02:01;;;;;;;4.95;2.72;;;;;;;;;;5093346;28;20082;-83
2022/08/14 06:04:28;;;;;;;4.07;2.95;;;;;;;;;;5092192;28;20028;-84
2022/08/14 06:06:54;;;;;;;3.22;2.60;;;;;;;;;;5091068;28;20058;-83
2022/08/14 06:09:20;;;;;;;2.85;2.55;;;;;;;;;;5092295;28;20485;-82
2022/08/14 06:11:46;;;;;;;2.80;2.60;;;;;;;;;;5093688;28;20028;-83
2022/08/14 06:14:12;;;;;;;3.90;2.58;;;;;;;;;;5093582;28;20020;-84
2022/08/14 06:16:38;;;;;;;2.63;2.42;;;;;;;;;;5093207;28;20028;-84
2022/08/14 06:19:05;;;;;;;3.00;2.50;;;;;;;;;;5092142;28;20118;-83
2022/08/14 06:21:31;;;;;;;2.97;2.70;;;;;;;;;;5090980;28;20078;-82
2022/08/14 06:23:57;;;;;;;2.50;2.30;;;;;;;;;;5088770;28;20013;-83
2022/08/14 06:26:23;;;;;;;3.05;2.47;;;;;;;;;;5092511;28;20131;-84
2022/08/14 06:28:49;;;;;;;3.17;2.88;;;;;;;;;;5091762;28;20039;-83
2022/08/14 06:31:16;;;;;;;2.60;2.40;;;;;;;;;;5091187;28;20016;-81
2022/08/14 06:33:42;;;;;;;2.63;2.42;;;;;;;;;;5092845;28;20036;-80
2022/08/14 06:36:08;;;;;;;3.20;2.70;;;;;;;;;;5092081;28;20028;-80
2022/08/14 06:38:34;;;;;;;2.83;2.63;;;;;;;;;;5091896;28;20020;-81
2022/08/14 06:41:00;;;;;;;3.17;2.88;;;;;;;;;;5090956;28;20031;-80
2022/08/14 06:43:26;;;;;;;2.78;2.40;;;;;;;;;;5091506;28;20024;-81
2022/08/14 06:45:52;;;;;;;3.10;2.90;;;;;;;;;;5091216;28;20024;-83
2022/08/14 06:48:19;;;;;;;2.58;2.38;;;;;;;;;;5092352;28;20028;-83
2022/08/14 06:50:46;;;;;;;3.20;2.97;;;;;;;;;;5091191;28;20410;-81
2022/08/14 06:53:13;;;;;;;3.28;2.85;;;;;;;;;;5090779;28;20474;-81
2022/08/14 06:55:41;;;;;;;2.90;2.70;;;;;;;;;;5091473;28;20061;-81
2022/08/14 06:58:10;;;;;;;3.03;2.83;;;;;;;;;;5091642;28;20020;-83
2022/08/14 07:00:36;;;;;;;2.90;2.70;;;;;;;;;;5089834;28;20070;-83
2022/08/14 07:05:47;;;;;;;3.88;2.90;;;;;;;;;;5077814;28;20039;-82
2022/08/14 07:08:14;;;;;;;4.47;3.08;;;;;;;;;;5070244;28;20064;-84
2022/08/14 07:10:40;;;;;;;3.30;3.00;;;;;;;;;;5070610;28;20017;-83
2022/08/14 07:13:06;;;;;;;3.58;2.92;;;;;;;;;;5070976;28;20463;-82
2022/08/14 07:15:33;;;;;;;3.13;2.90;;;;;;;;;;5070422;28;20052;-83
2022/08/14 07:17:59;;;;;;;3.42;3.13;;;;;;;;;;5080561;28;20024;-84
2022/08/14 07:20:27;;;;;;;3.42;3.13;;;;;;;;;;5091019;28;20469;-83
2022/08/14 07:22:57;;;;;;;3.53;3.00;;;;;;;;;;5091105;28;20060;-85
2022/08/14 07:25:23;;;;;;;3.00;2.75;;;;;;;;;;5092196;28;20052;-84
2022/08/14 07:27:50;;;;;;;6.70;3.10;;;;;;;;;;5092218;28;20040;-84
2022/08/14 07:30:16;;;;;;;4.60;3.05;;;;;;;;;;5091046;28;20053;-83
2022/08/14 07:32:43;;;;;;;3.17;2.88;;;;;;;;;;5092484;28;20057;-81
2022/08/14 07:35:09;;;;;;;3.38;2.97;;;;;;;;;;5090826;28;20024;-80
2022/08/14 07:37:35;;;;;;;4.07;2.92;;;;;;;;;;5091019;28;20527;-81
2022/08/14 07:40:01;;;;;;;3.47;3.17;;;;;;;;;;5092204;28;20020;-81
2022/08/14 07:42:28;;;;;;;3.45;3.15;;;;;;;;;;5091958;28;20421;-80
2022/08/14 07:44:54;;;;;;;3.35;3.00;;;;;;;;;;5087927;28;20032;-81
2022/08/14 07:47:20;;;;;;;2.95;2.75;;;;;;;;;;5090530;28;20467;-81
2022/08/14 07:50:12;;;;;;;3.20;2.90;;;;;;;;;;5089512;28;20048;-81
2022/08/14 07:52:39;;;;;;;3.95;2.90;;;;;;;;;;5086758;28;20050;-81
2022/08/14 07:55:06;;;;;;;4.57;3.00;;;;;;;;;;5092496;28;20069;-80
2022/08/14 07:57:32;;;;;;;2.85;2.65;;;;;;;;;;5092427;28;20016;-82
2022/08/14 07:59:58;;;;;;;5.35;3.30;;;;;;;;;;5083788;28;20040;-81
2022/08/14 08:02:27;;;;;;;3.53;3.22;;;;;;;;;;5071860;28;20513;-82
2022/08/14 08:04:53;;;;;;;3.88;3.03;;;;;;;;;;5078323;28;20477;-81
2022/08/14 08:07:20;;;;;;;3.40;3.10;;;;;;;;;;5089832;28;20134;-82
2022/08/14 08:09:49;;;;;;;3.45;2.78;;;;;;;;;;5089436;28;20403;-81
2022/08/14 08:12:16;;;;;;;3.30;2.55;;;;;;;;;;5090861;28;20470;-81
2022/08/14 08:14:43;;;;;;;3.58;2.75;;;;;;;;;;5090454;28;20021;-81
2022/08/14 08:17:09;;;;;;;3.40;3.10;;;;;;;;;;5090695;28;20024;-81
2022/08/14 08:19:37;;;;;;;2.78;2.53;;;;;;;;;;5089667;28;20024;-80
2022/08/14 08:22:03;;;;;;;4.78;3.33;;;;;;;;;;5090602;28;20027;-81
2022/08/14 08:24:29;;;;;;;3.10;2.88;;;;;;;;;;5088176;28;20027;-80
2022/08/14 08:26:55;;;;;;;3.35;3.05;;;;;;;;;;5091643;28;20047;-83
2022/08/14 08:29:23;;;;;;;3.38;3.15;;;;;;;;;;5091844;28;20020;-82
2022/08/14 08:31:50;;;;;;;2.83;2.63;;;;;;;;;;5093711;28;20017;-82
2022/08/14 08:34:20;;;;;;;3.83;2.90;;;;;;;;;;5095237;28;20028;-80
2022/08/14 08:36:46;;;;;;;3.90;3.00;;;;;;;;;;5094028;28;20036;-80
2022/08/14 08:39:12;;;;;;;3.00;2.80;;;;;;;;;;5094597;28;20031;-80
2022/08/14 08:41:39;;;;;;;2.83;2.63;;;;;;;;;;5093884;28;20039;-81
2022/08/14 08:44:05;;;;;;;2.85;2.63;;;;;;;;;;5084043;28;20294;-80
2022/08/14 08:46:32;;;;;;;3.08;2.72;;;;;;;;;;5090377;28;20086;-83
2022/08/14 08:48:58;;;;;;;3.15;2.85;;;;;;;;;;5095560;28;20019;-80
2022/08/14 08:51:25;;;;;;;4.00;3.08;;;;;;;;;;5094999;28;20027;-81
2022/08/14 08:54:00;;;;;;;3.23;2.90;;;;;;;;;;5094015;28;20027;-81
2022/08/14 08:56:37;;;;;;;3.30;2.95;;;;;;;;;;5093564;28;20026;-80
2022/08/14 08:59:15;;;;;;;4.30;2.72;;;;;;;;;;5082384;28;20028;-80
2022/08/14 09:01:41;;;;;;;3.25;2.92;;;;;;;;;;5092728;28;20102;-80
2022/08/14 09:04:06;;;;;;;3.20;2.60;;;;;;;;;;5093838;28;20486;-80
2022/08/14 09:06:42;;;;;;;3.75;3.22;;;;;;;;;;5094513;28;20024;-80
2022/08/14 09:09:21;;;;;;;3.10;2.80;;;;;;;;;;5094860;28;20055;-80
2022/08/14 09:11:48;;;;;;;3.85;3.05;;;;;;;;;;5094059;28;20538;-81
2022/08/14 09:14:14;;;;;;;3.67;2.75;;;;;;;;;;5090819;28;20027;-81
2022/08/14 09:16:40;;;;;;;4.78;3.25;;;;;;;;;;5093577;28;20032;-80
2022/08/14 09:19:06;;;;;;;6.15;3.38;;;;;;;;;;5092900;28;20009;-81
2022/08/14 09:21:33;;;;;;;3.05;2.75;;;;;;;;;;5092784;28;20042;-81
2022/08/14 09:24:00;;;;;;;4.22;2.90;;;;;;;;;;5092400;28;20450;-80
2022/08/14 09:26:26;;;;;;;2.83;2.60;;;;;;;;;;5077133;28;20051;-81
2022/08/14 09:28:52;;;;;;;3.28;2.50;;;;;;;;;;5072225;28;20033;-81
2022/08/14 09:31:18;;;;;;;3.38;2.80;;;;;;;;;;5073497;28;20385;-80
2022/08/14 09:33:44;;;;;;;3.00;2.80;;;;;;;;;;5073843;28;20024;-80
2022/08/14 09:36:10;;;;;;;3.75;2.88;;;;;;;;;;5071792;28;20056;-80
2022/08/14 09:38:55;;;;;;;3.33;2.75;;;;;;;;;;5074008;28;20440;-80
2022/08/14 09:41:40;;;;;;;3.80;2.90;;;;;;;;;;5092224;28;20032;-80
2022/08/14 09:44:17;;;;;;;2.75;2.55;;;;;;;;;;5092160;28;20063;-80
2022/08/14 09:46:52;;;;;;;3.05;2.75;;;;;;;;;;5092948;28;20444;-81
2022/08/14 09:49:29;;;;;;;2.78;2.50;;;;;;;;;;5092411;28;20553;-81
2022/08/14 09:52:03;;;;;;;2.92;2.65;;;;;;;;;;5092184;28;20019;-80
2022/08/14 09:54:36;;;;;;;2.95;2.40;;;;;;;;;;5092893;28;20115;-82
2022/08/14 09:57:05;;;;;;;2.92;2.53;;;;;;;;;;5092930;28;20043;-80
2022/08/14 09:59:39;;;;;;;2.58;2.30;;;;;;;;;;5090433;28;20505;-80
2022/08/14 10:02:16;;;;;;;2.83;2.63;;;;;;;;;;5092519;28;20424;-81
2022/08/14 10:04:43;;;;;;;3.67;2.38;;;;;;;;;;5091291;28;20099;-80
2022/08/14 10:07:09;;;;;;;2.70;2.47;;;;;;;;;;5091947;28;20131;-81
2022/08/14 10:09:49;;;;;;;3.15;2.50;;;;;;;;;;5089940;28;20016;-80
2022/08/14 10:12:15;;;;;;;2.78;2.05;;;;;;;;;;5093241;28;20048;-80
2022/08/14 10:14:41;;;;;;;2.60;2.40;;;;;;;;;;5093232;28;20024;-80
2022/08/14 10:17:07;;;;;;;2.30;2.10;;;;;;;;;;5092188;28;20077;-80
2022/08/14 10:19:34;;;;;;;2.38;2.13;;;;;;;;;;5092196;28;20031;-80
2022/08/14 10:22:02;;;;;;;2.78;2.58;;;;;;;;;;5092069;28;20032;-80
2022/08/14 10:24:40;;;;;;;2.25;2.10;;;;;;;;;;5092268;28;20351;-80
2022/08/14 10:27:23;;;;;;;2.67;2.30;;;;;;;;;;5092832;28;20408;-80
2022/08/14 10:29:50;;;;;;;2.70;2.20;;;;;;;;;;5091992;28;20039;-80
2022/08/14 10:32:16;;;;;;;3.50;2.40;;;;;;;;;;5093176;28;20020;-81
2022/08/14 10:34:42;;;;;;;3.65;2.60;;;;;;;;;;5091922;28;20031;-81
2022/08/14 10:37:09;;;;;;;3.80;2.50;;;;;;;;;;5091928;28;20020;-80
2022/08/14 10:39:36;;;;;;;2.55;2.35;;;;;;;;;;5091634;28;20062;-80
2022/08/14 10:42:04;;;;;;;2.60;2.38;;;;;;;;;;5091940;28;20027;-82
2022/08/14 10:44:37;;;;;;;2.45;2.25;;;;;;;;;;5089895;28;20046;-84
2022/08/14 10:47:08;;;;;;;2.67;2.47;;;;;;;;;;5091565;28;20044;-83
2022/08/14 10:49:34;;;;;;;2.63;2.33;;;;;;;;;;5092409;28;20320;-84
2022/08/14 10:52:05;;;;;;;5.32;2.45;;;;;;;;;;5090654;28;20559;-83
2022/08/14 10:54:37;;;;;;;2.50;2.30;;;;;;;;;;5092344;28;20017;-82
2022/08/14 10:57:23;;;;;;;2.40;2.20;;;;;;;;;;5091650;28;20466;-81
2022/08/14 10:59:49;;;;;;;2.70;2.50;;;;;;;;;;5090988;28;20050;-80
2022/08/14 11:02:19;;;;;;;2.70;2.50;;;;;;;;;;5092812;28;20420;-81
2022/08/14 11:04:57;;;;;;;2.80;2.60;;;;;;;;;;5089256;28;20024;-83
2022/08/14 11:07:23;;;;;;;3.13;2.80;;;;;;;;;;5090895;28;20044;-83
2022/08/14 11:09:56;;;;;;;2.53;2.10;;;;;;;;;;5091730;28;20027;-83
2022/08/14 11:12:22;;;;;;;2.90;2.60;;;;;;;;;;5092534;28;20069;-84
2022/08/14 11:14:58;;;;;;;3.30;2.40;;;;;;;;;;5091962;28;20032;-83
2022/08/14 11:17:24;;;;;;;2.85;2.65;;;;;;;;;;5091304;28;20026;-82
2022/08/14 11:19:55;;;;;;;3.33;2.33;;;;;;;;;;5089769;28;20382;-81
2022/08/14 11:22:21;;;;;;;2.55;2.38;;;;;;;;;;5091405;28;20274;-83
2022/08/14 11:24:49;;;;;;;2.70;2.50;;;;;;;;;;5089371;28;20036;-83
2022/08/14 11:27:16;;;;;;;3.60;2.35;;;;;;;;;;5070722;28;20049;-81
2022/08/14 11:29:43;;;;;;;3.08;2.80;;;;;;;;;;5069883;28;20025;-82
2022/08/14 11:32:09;;;;;;;3.60;2.95;;;;;;;;;;5071525;28;20481;-81
2022/08/14 11:34:38;;;;;;;2.95;2.75;;;;;;;;;;5075609;28;20020;-83
2022/08/14 11:37:07;;;;;;;2.92;2.53;;;;;;;;;;5090940;28;20032;-81
2022/08/14 11:39:33;;;;;;;2.90;2.60;;;;;;;;;;5090688;28;20024;-81
2022/08/14 11:42:02;;;;;;;2.75;2.55;;;;;;;;;;5090960;28;20031;-81
2022/08/14 11:44:28;;;;;;;;;;;;;;;;;;5092781;28;20013;-83
2022/08/14 11:46:54;;;;;;;2.90;2.70;;;;;;;;;;5090687;28;19923;-83
2022/08/14 11:49:27;;;;;;;2.50;2.40;;;;;;;;;;5092271;28;20370;-80
2022/08/14 11:51:54;;;;;;;2.80;2.60;;;;;;;;;;5090804;28;20024;-81
2022/08/14 11:54:20;;;;;;;2.85;2.63;;;;;;;;;;5090729;28;20020;-80
2022/08/14 11:56:50;;;;;;;2.65;2.45;;;;;;;;;;5090687;28;20019;-81
2022/08/14 11:59:17;;;;;;;3.05;2.80;;;;;;;;;;5090898;28;20545;-83
2022/08/14 12:01:46;;;;;;;5.05;2.60;;;;;;;;;;5090783;28;20020;-82
2022/08/14 12:04:20;;;;;;;2.70;2.50;;;;;;;;;;5090988;28;20409;-84
2022/08/14 12:06:49;;;;;;;3.35;2.60;;;;;;;;;;5094841;28;20028;-83
2022/08/14 12:09:27;;;;;;;3.35;2.72;;;;;;;;;;5094955;28;20034;-81
2022/08/14 12:11:54;;;;;;;3.28;2.88;;;;;;;;;;5094329;28;20033;-80
2022/08/14 12:14:21;;;;;;;3.63;2.90;;;;;;;;;;5095954;28;20022;-84
2022/08/14 12:16:57;;;;;;;5.03;2.80;;;;;;;;;;5093965;28;20114;-83
2022/08/14 12:19:24;;;;;;;3.95;2.80;;;;;;;;;;5093778;28;20020;-84
2022/08/14 12:21:50;;;;;;;3.13;2.92;;;;;;;;;;5094462;28;20107;-83
2022/08/14 12:24:16;;;;;;;3.28;3.08;;;;;;;;;;5093883;28;20028;-81
2022/08/14 12:26:43;;;;;;;2.83;2.63;;;;;;;;;;5092108;28;20056;-81
2022/08/14 12:29:08;;;;;;;2.78;2.58;;;;;;;;;;5093714;28;20028;-81
2022/08/14 12:31:35;;;;;;;2.80;2.60;;;;;;;;;;5093925;28;20031;-81
2022/08/14 12:34:02;;;;;;;2.95;2.70;;;;;;;;;;5094748;28;20028;-80
2022/08/14 12:36:29;;;;;;;2.60;2.40;;;;;;;;;;5093472;28;20100;-80
2022/08/14 12:38:56;;;;;;;3.22;2.50;;;;;;;;;;5094437;28;20141;-81
2022/08/14 12:41:22;;;;;;;2.90;2.70;;;;;;;;;;5093660;28;20059;-80
2022/08/14 12:43:50;;;;;;;3.13;2.65;;;;;;;;;;5094336;28;20027;-80
2022/08/14 12:46:36;;;;;;;4.38;2.60;;;;;;;;;;5091528;28;20024;-80
2022/08/14 12:49:28;;;;;;;3.35;2.80;;;;;;;;;;5093776;28;20035;-81
2022/08/14 12:51:55;;;;;;;2.83;2.63;;;;;;;;;;5092035;28;20109;-81
2022/08/14 12:54:21;;;;;;;2.80;2.60;;;;;;;;;;5095022;28;20024;-81
2022/08/14 12:56:48;;;;;;;2.75;2.55;;;;;;;;;;5094361;28;20024;-80
2022/08/14 12:59:15;;;;;;;2.60;2.40;;;;;;;;;;5093792;28;20020;-80
2022/08/14 13:01:41;;;;;;;2.78;2.58;;;;;;;;;;5092733;28;20020;-80
2022/08/14 13:04:11;;;;;;;4.22;2.75;;;;;;;;;;5093784;28;20020;-80
2022/08/14 13:06:38;;;;;;;3.35;2.50;;;;;;;;;;5080327;28;20309;-80
2022/08/14 13:09:05;;;;;;;2.80;2.60;;;;;;;;;;5094776;28;20040;-83
2022/08/14 13:11:36;;;;;;;2.90;2.70;;;;;;;;;;5094514;28;20063;-80
2022/08/14 13:14:02;;;;;;;3.15;2.88;;;;;;;;;;5093562;28;20027;-81
2022/08/14 13:16:29;;;;;;;2.88;2.65;;;;;;;;;;5092709;28;20028;-80
2022/08/14 13:19:00;;;;;;;2.92;2.72;;;;;;;;;;5093363;28;20016;-81
2022/08/14 13:21:26;;;;;;;3.20;2.90;;;;;;;;;;5093517;28;20031;-81
2022/08/14 13:23:53;;;;;;;2.72;2.53;;;;;;;;;;5093208;28;20370;-81
2022/08/14 13:26:20;;;;;;;2.75;2.55;;;;;;;;;;5092834;28;20052;-81
2022/08/14 13:28:49;;;;;;;3.42;3.17;;;;;;;;;;5092179;28;20024;-81
2022/08/14 13:31:16;;;;;;;4.00;3.53;;;;;;;;;;5092229;28;20023;-79
2022/08/14 13:33:42;;;;;;;4.63;4.22;;;;;;;;;;5094348;28;20028;-80
2022/08/14 13:36:09;;;;;;;4.28;3.85;;;;;;;;;;5092041;28;20081;-80
2022/08/14 13:38:35;;;;;;;3.53;3.22;;;;;;;;;;5094219;28;20055;-81
2022/08/14 13:41:02;;;;;;;3.25;3.03;;;;;;;;;;5093706;28;20069;-80
2022/08/14 13:43:28;;;;;;;3.50;2.88;;;;;;;;;;5094253;28;20024;-80
2022/08/14 13:45:55;;;;;;;3.15;2.88;;;;;;;;;;5090632;28;20016;-80
2022/08/14 13:48:22;;;;;;;3.17;2.88;;;;;;;;;;5086979;28;20032;-80
2022/08/14 13:50:51;;;;;;;3.35;3.05;;;;;;;;;;5075086;28;20036;-80
2022/08/14 13:53:20;;;;;;;3.33;3.00;;;;;;;;;;5074747;28;20448;-81
2022/08/14 13:55:47;;;;;;;3.08;2.78;;;;;;;;;;5077849;28;20103;-81
2022/08/14 13:58:14;;;;;;;3.15;2.95;;;;;;;;;;5076966;28;20024;-79
2022/08/14 14:00:40;;;;;;;3.05;2.75;;;;;;;;;;5081986;28;20027;-80
2022/08/14 14:03:07;;;;;;;3.08;2.85;;;;;;;;;;5075467;28;20032;-80
2022/08/14 14:05:35;;;;;;;3.20;2.90;;;;;;;;;;5088515;28;20032;-81
2022/08/14 14:08:04;;;;;;;2.60;2.40;;;;;;;;;;5081455;28;20092;-80
2022/08/14 14:10:31;;;;;;;4.15;2.88;;;;;;;;;;5073009;28;20028;-81
2022/08/14 14:12:58;;;;;;;3.25;2.95;;;;;;;;;;5079519;28;20024;-81
2022/08/14 14:15:24;;;;;;;3.33;3.10;;;;;;;;;;5073783;28;20028;-80
2022/08/14 14:17:50;;;;;;;3.05;2.70;;;;;;;;;;5075274;28;20367;-80
2022/08/14 14:20:18;;;;;;;2.95;2.75;;;;;;;;;;5082352;28;20032;-80
2022/08/14 14:22:44;;;;;;;;;;;;;;;;;;5082168;28;20013;-81
2022/08/14 14:25:13;;;;;;;3.28;2.97;;;;;;;;;;5086895;28;20263;-80
2022/08/14 14:27:44;;;;;;;3.08;2.80;;;;;;;;;;5074066;28;20058;-79
2022/08/14 14:30:11;;;;;;;2.90;2.70;;;;;;;;;;5077334;28;20050;-80
2022/08/14 14:32:42;;;;;;;2.95;2.75;;;;;;;;;;5091261;28;20024;-81
2022/08/14 14:35:10;;;;;;;2.80;2.60;;;;;;;;;;5088366;28;20024;-81
2022/08/14 14:37:39;;;;;;;2.90;2.63;;;;;;;;;;5091776;28;20047;-81
2022/08/14 14:40:05;;;;;;;2.97;2.70;;;;;;;;;;5092538;28;20089;-79
2022/08/14 14:42:33;;;;;;;2.70;2.50;;;;;;;;;;5078784;28;20031;-79
2022/08/14 14:45:25;;;;;;;3.92;2.85;;;;;;;;;;5084475;28;20102;-82
2022/08/14 14:47:52;;;;;;;3.08;2.88;;;;;;;;;;5078553;28;20093;-80
2022/08/14 14:50:19;;;;;;;2.80;2.60;;;;;;;;;;5093096;28;20023;-80
2022/08/14 14:52:46;;;;;;;3.17;2.92;;;;;;;;;;5081475;28;20027;-81
2022/08/14 14:55:12;;;;;;;2.88;2.67;;;;;;;;;;5070754;28;20059;-81
2022/08/14 14:57:39;;;;;;;2.50;2.40;;;;;;;;;;5091121;28;20031;-81